Condon Work Center
 (RAWS) 3684 ft         Display wind rose
     Date    Time     Temp MxTp MnTp DewP  RH Spd Dir Gst Pcp24
2020 Jan 17 08:08 pm    20   33   19   15  81   1 126   3  0.08
2020 Jan 17 07:08 pm    19   34   19   14  81   0   -   3  0.08
2020 Jan 17 06:08 pm    21   34   21   16  79   0   -   3  0.09
2020 Jan 17 05:08 pm    25   37   25   13  59   0   -   8  0.09
2020 Jan 17 04:08 pm    27   39   25   11  50   3 331  12  0.10
2020 Jan 17 03:08 pm    31   39   25   10  41   5 313  14  0.11
2020 Jan 17 02:08 pm    32   39   25   11  41   7 320  15  0.09
2020 Jan 17 01:08 pm    32   39   25   12  42   5 301  13  0.08
2020 Jan 17 12:08 pm    32   39   25   13  45   6 296  13  0.06
2020 Jan 17 11:08 am    33   39   25   18  54   5 304   8  0.06
2020 Jan 17 10:08 am    25   39   25   22  88   0   -   4  0.05
2020 Jan 17 09:08 am    27   39   27   24  88   1  37   9  0.05
2020 Jan 17 08:08 am    28   39   26   28  98   1 275   6  0.05
2020 Jan 17 07:08 am    29   39   26   29  99   1 359   8  0.05
2020 Jan 17 06:08 am    30   39   26   30 100   6 329  12  0.05
2020 Jan 17 05:08 am    30   39   25   30 100   6 336  17  0.05
2020 Jan 17 04:08 am    29   39   25   29 100   3 319   6  0.05
2020 Jan 17 03:08 am    30   39   24   27  90   3 334  10  0.05
2020 Jan 17 02:08 am    28   39   24   25  88   0   -   1  0.05
2020 Jan 17 01:08 am    27   39   24   25  90   0   -   2  0.05
2020 Jan 17 12:08 am    29   39   24   25  83   0   -   3  0.05
2020 Jan 16 11:08 pm    30   39   24   25  80   1 207   6  0.05
2020 Jan 16 10:08 pm    31   39   23   24  74   2 171   8  0.05
2020 Jan 16 09:08 pm    31   39   17   25  77   3 136   8     -
2020 Jan 16 08:08 pm    31   39   17   23  73   2 140   8  0.05
2020 Jan 16 07:08 pm    34   39   16   24  67   3 146   7  0.05
2020 Jan 16 06:08 pm    34   39   16   24  67   3 141   7  0.04
2020 Jan 16 05:08 pm    37   39   16   22  53   4 145  11  0.04
2020 Jan 16 04:08 pm    39   39   16   22  49   4 139  12  0.03
2020 Jan 16 03:08 pm    39   39   16   22  50   4 129  13  0.02
2020 Jan 16 02:08 pm    37   38   16   20  50   5 130  18  0.02
2020 Jan 16 01:08 pm    38   38   16   20  47   7 133  18  0.01
2020 Jan 16 12:08 pm    37   37   16   19  48   8 135  24  0.01
2020 Jan 16 11:08 am    34   34   16   19  54   5 137  16  0.00
2020 Jan 16 10:08 am    31   31    9   18  58   5 142  16  0.00
2020 Jan 16 09:08 am    29   29    2   20  69   3  96   9  0.00
2020 Jan 16 08:08 am    26   29    2   22  84   0   -  10  0.00
2020 Jan 16 07:08 am    27    -    -   22  82   4 139  10  0.00
2020 Jan 16 06:08 am    26   29    2   22  86   4 134  13  0.00
2020 Jan 16 05:08 am    25   29    2   23  90   5 139  16  0.00
2020 Jan 16 04:08 am    25   29    2   21  83   4 133  14  0.00
2020 Jan 16 03:08 am    24   29    2   21  88   5 137  16  0.00
2020 Jan 16 02:08 am    24   29    2   18  77   6 141  19  0.00
2020 Jan 16 01:08 am    25   29    2   12  57   6 135  13     -
2020 Jan 16 12:08 am    25   29    2   10  51   4 142  12  0.00
2020 Jan 15 11:08 pm    25   29    2   10  51   4 141  13  0.00
2020 Jan 15 10:08 pm    23   29    2    9  54   3 125  13  0.00
2020 Jan 15 09:08 pm    17   29    2   10  72   1 145   3  0.00
2020 Jan 15 08:08 pm    17   29    2    9  71   1 156   5  0.00